createdAt,value
2019-04-01T00:04:36.627Z,10.60
2019-04-01T00:09:31.215Z,10.80
2019-04-01T00:14:25.810Z,10.90
2019-04-01T00:19:20.396Z,11.00
2019-04-01T00:24:15.004Z,11.10
2019-04-01T00:29:09.586Z,11.20
2019-04-01T00:34:04.177Z,11.30
2019-04-01T00:38:58.759Z,11.40
2019-04-01T00:43:55.960Z,11.50
2019-04-01T00:48:50.535Z,11.50
2019-04-01T00:53:45.215Z,11.50
2019-04-01T00:58:39.783Z,11.60
2019-04-01T01:03:34.557Z,11.50
2019-04-01T01:08:29.137Z,11.40
2019-04-01T01:13:23.906Z,11.30
2019-04-01T01:18:18.475Z,11.30
2019-04-01T01:23:13.075Z,11.20
2019-04-01T01:28:07.665Z,11.10
2019-04-01T01:33:02.255Z,11.10
2019-04-01T01:37:56.834Z,11.00
2019-04-01T01:42:51.484Z,11.00
2019-04-01T01:47:47.668Z,11.00
2019-04-01T01:52:42.255Z,10.90
2019-04-01T01:57:36.827Z,10.90
2019-04-01T02:02:31.553Z,10.80
2019-04-01T02:07:26.136Z,10.80
2019-04-01T02:12:20.741Z,10.70
2019-04-01T02:17:15.324Z,10.60
2019-04-01T02:22:10.068Z,10.50
2019-04-01T02:27:04.722Z,10.30
2019-04-01T02:31:59.350Z,10.10
2019-04-01T02:36:53.913Z,10.10
2019-04-01T02:41:48.529Z,10.20
2019-04-01T02:46:43.132Z,10.20
2019-04-01T02:51:37.735Z,10.20
2019-04-01T02:56:32.323Z,10.10
2019-04-01T03:01:26.906Z,10.10
2019-04-01T03:06:21.480Z,10.10
2019-04-01T03:11:16.102Z,10.10
2019-04-01T03:16:10.682Z,10.00
2019-04-01T03:21:05.280Z,10.00
2019-04-01T03:25:59.848Z,9.90
2019-04-01T03:30:54.515Z,9.90
2019-04-01T03:35:49.099Z,9.80
2019-04-01T03:40:43.700Z,9.70
2019-04-01T03:45:38.260Z,9.70
2019-04-01T03:50:32.911Z,9.60
2019-04-01T03:55:27.492Z,9.60
2019-04-01T04:00:22.082Z,9.40
2019-04-01T04:05:16.650Z,9.20
2019-04-01T04:10:11.315Z,8.90
2019-04-01T04:15:07.094Z,8.70
2019-04-01T04:20:01.700Z,8.50
2019-04-01T04:24:56.336Z,8.40
2019-04-01T04:29:50.921Z,8.30
2019-04-01T04:34:45.501Z,8.20
2019-04-01T04:39:40.103Z,8.10
2019-04-01T04:44:34.680Z,8.00
2019-04-01T04:49:29.263Z,7.90
2019-04-01T04:54:23.924Z,7.80
2019-04-01T04:59:19.350Z,7.70
2019-04-01T05:04:13.924Z,7.50
2019-04-01T05:09:08.507Z,7.50
2019-04-01T05:14:03.089Z,7.40
2019-04-01T05:18:57.682Z,7.30
2019-04-01T05:23:54.733Z,7.50
2019-04-01T05:28:51.520Z,7.70
2019-04-01T05:33:55.314Z,7.90
2019-04-01T05:38:44.337Z,8.40
2019-04-01T05:43:39.140Z,9.00
2019-04-01T05:48:33.866Z,9.30
2019-04-01T05:53:28.658Z,10.10
2019-04-01T05:58:23.618Z,10.70
2019-04-01T06:03:19.336Z,11.30
2019-04-01T06:08:14.080Z,11.60
2019-04-01T06:13:08.811Z,11.60
2019-04-01T06:18:03.510Z,12.10
2019-04-01T06:22:58.174Z,12.40
2019-04-01T06:27:52.740Z,12.50
2019-04-01T06:32:48.145Z,12.10
2019-04-01T06:37:43.058Z,12.20
2019-04-01T06:42:37.719Z,12.10
2019-04-01T06:47:32.393Z,11.60
2019-04-01T06:52:26.983Z,11.60
2019-04-01T06:57:21.656Z,11.70
2019-04-01T07:02:16.240Z,11.70
2019-04-01T07:07:18.746Z,11.10
2019-04-01T07:12:09.338Z,11.20
2019-04-01T07:17:05.010Z,11.00
2019-04-01T07:22:00.141Z,10.80
2019-04-01T07:26:55.671Z,10.90
2019-04-01T07:31:51.803Z,11.20
2019-04-01T07:36:49.170Z,11.50
2019-04-01T07:41:44.182Z,11.30
2019-04-01T07:46:38.795Z,11.40
2019-04-01T07:51:38.446Z,11.50
2019-04-01T07:56:38.657Z,11.60
2019-04-01T08:01:38.605Z,11.50
2019-04-01T08:06:33.337Z,11.60
2019-04-01T08:11:32.527Z,11.50
2019-04-01T08:16:33.158Z,11.50
2019-04-01T08:21:28.370Z,11.50
2019-04-01T08:26:24.670Z,11.50
2019-04-01T08:31:19.719Z,11.50
2019-04-01T08:36:14.461Z,11.50
2019-04-01T08:41:09.199Z,11.70
2019-04-01T08:46:04.020Z,11.60
2019-04-01T08:51:04.661Z,12.00
2019-04-01T08:56:02.183Z,12.00
2019-04-01T09:00:57.054Z,12.20
2019-04-01T09:05:53.840Z,12.30
2019-04-01T09:10:48.716Z,12.50
2019-04-01T09:15:44.687Z,12.60
2019-04-01T09:20:39.295Z,12.80
2019-04-01T09:25:33.894Z,12.50
2019-04-01T09:30:28.624Z,12.90
2019-04-01T09:35:23.344Z,12.90
2019-04-01T09:40:18.254Z,13.10
2019-04-01T09:45:13.088Z,13.20
2019-04-01T09:50:09.248Z,13.30
2019-04-01T09:55:06.148Z,13.40
2019-04-01T10:00:00.539Z,13.40
2019-04-01T10:04:55.135Z,13.50
2019-04-01T10:09:50.234Z,13.60
2019-04-01T10:14:44.794Z,13.80
2019-04-01T10:19:40.365Z,13.80
2019-04-01T10:24:35.047Z,14.10
2019-04-01T10:29:29.699Z,14.30
2019-04-01T10:34:24.373Z,14.30
2019-04-01T10:39:19.062Z,14.10
2019-04-01T10:44:14.550Z,14.00
2019-04-01T10:49:09.230Z,14.00
2019-04-01T10:54:10.977Z,14.20
2019-04-01T10:59:06.851Z,14.10
2019-04-01T11:04:02.905Z,14.20
2019-04-01T11:08:57.623Z,14.30
2019-04-01T11:13:53.902Z,14.50
2019-04-01T11:18:48.843Z,14.60
2019-04-01T11:23:44.683Z,14.50
2019-04-01T11:28:39.281Z,14.40
2019-04-01T11:33:35.480Z,14.90
2019-04-01T11:38:30.118Z,14.60
2019-04-01T11:43:24.722Z,14.60
2019-04-01T11:48:22.983Z,14.90
2019-04-01T11:53:17.977Z,15.10
2019-04-01T11:58:12.731Z,15.40
2019-04-01T12:03:07.415Z,15.00
2019-04-01T12:08:02.561Z,15.20
2019-04-01T12:12:57.186Z,15.60
2019-04-01T12:17:53.452Z,16.00
2019-04-01T12:22:48.066Z,16.20
2019-04-01T12:27:42.740Z,16.00
2019-04-01T12:32:39.579Z,16.00
2019-04-01T12:37:34.220Z,16.20
2019-04-01T12:42:28.971Z,16.40
2019-04-01T12:47:24.624Z,16.50
2019-04-01T12:52:20.749Z,16.60
2019-04-01T12:57:18.759Z,16.60
2019-04-01T13:02:12.186Z,16.70
2019-04-01T13:07:07.075Z,16.50
2019-04-01T13:12:01.730Z,16.50
2019-04-01T13:16:56.425Z,16.50
2019-04-01T13:21:51.701Z,16.60
2019-04-01T13:26:46.430Z,16.90
2019-04-01T13:31:41.033Z,16.90
2019-04-01T13:36:35.638Z,17.00
2019-04-01T13:41:41.776Z,17.10
2019-04-01T13:46:26.775Z,17.10
2019-04-01T13:51:21.496Z,17.10
2019-04-01T13:56:16.293Z,17.40
2019-04-01T14:01:11.061Z,17.50
2019-04-01T14:06:05.929Z,17.70
2019-04-01T14:11:00.678Z,17.80
2019-04-01T14:15:57.027Z,17.70
2019-04-01T14:20:53.000Z,17.70
2019-04-01T14:25:49.183Z,17.50
2019-04-01T14:30:52.516Z,17.40
2019-04-01T14:35:54.068Z,17.50
2019-04-01T14:40:51.817Z,17.60
2019-04-01T14:45:50.193Z,17.70
2019-04-01T14:51:04.538Z,17.90
2019-04-01T14:56:04.203Z,18.20
2019-04-01T15:01:01.250Z,17.90
2019-04-01T15:06:04.281Z,17.90
2019-04-01T15:11:04.585Z,18.00
2019-04-01T15:16:02.225Z,18.10
2019-04-01T15:20:57.757Z,18.00
2019-04-01T15:25:54.694Z,17.80
2019-04-01T15:31:01.408Z,17.80
2019-04-01T15:35:59.417Z,17.70
2019-04-01T15:40:58.126Z,17.80
2019-04-01T15:45:51.214Z,17.90
2019-04-01T15:50:45.991Z,17.70
2019-04-01T15:55:40.871Z,17.80
2019-04-01T16:00:35.648Z,18.00
2019-04-01T16:05:30.620Z,17.90
2019-04-01T16:10:29.058Z,17.80
2019-04-01T16:15:21.893Z,17.80
2019-04-01T16:20:16.895Z,17.60
2019-04-01T16:25:13.175Z,17.70
2019-04-01T16:30:09.801Z,17.50
2019-04-01T16:35:06.784Z,17.50
2019-04-01T16:40:01.494Z,17.50
2019-04-01T16:44:56.363Z,17.40
2019-04-01T16:49:51.117Z,17.40
2019-04-01T16:54:59.281Z,17.30
2019-04-01T16:59:54.279Z,17.20
2019-04-01T17:04:49.345Z,17.10
2019-04-01T17:09:44.708Z,16.90
2019-04-01T17:14:39.797Z,16.80
2019-04-01T17:19:34.783Z,16.70
2019-04-01T17:24:30.016Z,16.60
2019-04-01T17:29:25.853Z,16.40
2019-04-01T17:34:31.168Z,16.30
2019-04-01T17:39:25.916Z,16.10
2019-04-01T17:44:20.778Z,16.00
2019-04-01T17:49:15.502Z,15.90
2019-04-01T17:54:10.245Z,15.70
2019-04-01T17:59:05.104Z,15.60
2019-04-01T18:03:59.842Z,15.50
2019-04-01T18:08:54.466Z,15.40
2019-04-01T18:13:49.245Z,15.20
2019-04-01T18:18:44.888Z,15.10
2019-04-01T18:23:39.622Z,15.10
2019-04-01T18:28:34.401Z,15.10
2019-04-01T18:33:30.246Z,14.90
2019-04-01T18:38:25.746Z,14.80
2019-04-01T18:43:20.638Z,14.70
2019-04-01T18:48:15.431Z,14.60
2019-04-01T18:53:10.251Z,14.50
2019-04-01T18:58:05.024Z,14.40
2019-04-01T19:02:59.824Z,14.30
2019-04-01T19:07:54.692Z,14.20
2019-04-01T19:12:49.547Z,14.10
2019-04-01T19:17:44.488Z,14.00
2019-04-01T19:22:39.282Z,13.90
2019-04-01T19:27:34.054Z,13.80
2019-04-01T19:32:28.872Z,13.70
2019-04-01T19:37:23.729Z,13.50
2019-04-01T19:42:18.532Z,13.40
2019-04-01T19:47:13.301Z,13.40
2019-04-01T19:52:09.738Z,13.30
2019-04-01T19:57:05.938Z,13.30
2019-04-01T20:02:00.903Z,13.20
2019-04-01T20:06:55.742Z,13.10
2019-04-01T20:11:50.572Z,12.90
2019-04-01T20:16:47.032Z,12.80
2019-04-01T20:21:41.974Z,12.70
2019-04-01T20:26:36.742Z,12.60
2019-04-01T20:31:31.475Z,12.60
2019-04-01T20:36:28.704Z,12.60
2019-04-01T20:41:22.691Z,12.60
2019-04-01T20:46:17.399Z,12.50
2019-04-01T20:51:12.189Z,12.30
2019-04-01T20:56:07.123Z,12.30
2019-04-01T21:01:02.003Z,12.10
2019-04-01T21:05:56.712Z,11.90
2019-04-01T21:10:51.440Z,11.80
2019-04-01T21:15:46.237Z,11.70
2019-04-01T21:20:41.349Z,11.60
2019-04-01T21:25:36.973Z,11.50
2019-04-01T21:30:31.753Z,11.60
2019-04-01T21:35:26.559Z,11.40
2019-04-01T21:40:21.408Z,11.40
2019-04-01T21:45:17.814Z,11.40
2019-04-01T21:50:12.949Z,11.40
2019-04-01T21:55:08.653Z,11.20
2019-04-01T22:00:05.069Z,11.10
2019-04-01T22:04:59.881Z,10.90
2019-04-01T22:09:54.759Z,10.70
2019-04-01T22:14:49.439Z,10.70
2019-04-01T22:19:44.234Z,10.50
2019-04-01T22:24:39.038Z,10.30
2019-04-01T22:29:33.873Z,10.10
2019-04-01T22:34:28.615Z,10.00
2019-04-01T22:39:27.420Z,10.00
2019-04-01T22:44:19.894Z,9.90
2019-04-01T22:49:14.680Z,9.90
2019-04-01T22:54:09.542Z,9.80
2019-04-01T22:59:04.367Z,9.80
2019-04-01T23:03:59.100Z,9.80
2019-04-01T23:08:53.822Z,9.70
2019-04-01T23:13:48.804Z,9.70
2019-04-01T23:18:43.540Z,9.70
2019-04-01T23:23:38.166Z,9.70
2019-04-01T23:28:32.776Z,9.70
2019-04-01T23:33:27.662Z,9.50
2019-04-01T23:38:22.455Z,9.40
2019-04-01T23:43:17.189Z,9.30
2019-04-01T23:48:11.902Z,9.10
2019-04-01T23:53:06.779Z,9.10
2019-04-01T23:58:01.551Z,8.90
